Grande Prairie Airport
CYQU : now visible

Airfield :











YOU CAN JOIN US ON...

 
LOGIN :

Register | Disclaimer

   EN    FR    IT 

 









Legend :    VFR   Marginal VFR   IFR   Intensive IFR   Very Intensive IFR
Visi :
Ceiling :
>= 8 km
>= 3000ft
5 to 8 km
1000 to 3000 ft
1500m to 5 km
500 to 1000 ft
800 to 1500m
200 to 500 ft
< 800m
< 200 ft
Symbols :   Thunderstorms  Fog  Heavy snow  Heavy precipitations  Wind > 20 kt







- Airport Elevation : 2195 ft
- IATA code : YQU


CYQU - Grande Prairie

CURRENT METAR :
  • 222300Z 26012G18KT 25SM SCT060 18/04 A2994 RMK CU4 SLP153 DENSITY ALT 3000FT

EXPIRED METARs :
  • 222200Z 26014G20KT 25SM BKN068 17/03 A2995 RMK AC6 SLP154 DENSITY ALT 3000FT
  • 222100Z 26018KT 25SM BKN063 17/04 A2995 RMK SC6 SLP152 DENSITY ALT 2900FT

TAF AMD TAF CYQU
Valid from the 22 at 20:00 until the 23 at 07:00 UTC


222039Z 2220/2307 26014G24KT P6SM SCT050
FM230300 25008KT P6SM FEW060 RMK NXT FCST BY 230100Z
No reported NOTAMs for that airfield.



MET'MAP, your aeronautical weather chart ! - Copyright ORBIFLY December 2007 - Disclaimer

ORBIFLY MET'MAP TEAM :

Programming & Development : Alexandra Zaïnal
Concept & Development : Baudouin d'Aumeries
Co-Development & Prog : Marc-Olivier Méhu
Technical & hardware support : Manuel Goepfert

Contact : metmap@orbifly.com




SOURCES & CREDITS :

   NOAA       Earth
Advisory